createdAt,value
2018-08-22T00:01:26.841Z,70.35
2018-08-22T00:03:55.634Z,70.21
2018-08-22T00:06:24.294Z,69.88
2018-08-22T00:08:53.004Z,70.22
2018-08-22T00:11:21.845Z,70.29
2018-08-22T00:13:50.567Z,69.93
2018-08-22T00:16:19.279Z,69.88
2018-08-22T00:18:47.993Z,70.42
2018-08-22T00:21:16.678Z,69.85
2018-08-22T00:23:45.370Z,70.00
2018-08-22T00:26:14.096Z,70.64
2018-08-22T00:28:43.043Z,70.65
2018-08-22T00:31:11.762Z,70.52
2018-08-22T00:33:40.499Z,71.48
2018-08-22T00:36:09.255Z,71.22
2018-08-22T00:38:38.002Z,71.39
2018-08-22T00:41:06.734Z,71.25
2018-08-22T00:43:35.470Z,71.17
2018-08-22T00:46:04.196Z,70.96
2018-08-22T00:48:32.985Z,71.14
2018-08-22T00:51:01.774Z,71.43
2018-08-22T00:53:30.474Z,71.63
2018-08-22T00:55:59.151Z,71.84
2018-08-22T00:58:27.857Z,72.13
2018-08-22T01:00:56.551Z,71.87
2018-08-22T01:03:25.301Z,72.33
2018-08-22T01:05:53.987Z,72.29
2018-08-22T01:08:22.666Z,72.50
2018-08-22T01:10:51.362Z,72.54
2018-08-22T01:13:20.048Z,72.87
2018-08-22T01:15:48.818Z,72.82
2018-08-22T01:18:17.524Z,73.02
2018-08-22T01:20:46.216Z,73.05
2018-08-22T01:23:15.000Z,73.05
2018-08-22T01:25:43.693Z,73.20
2018-08-22T01:28:12.399Z,73.14
2018-08-22T01:30:41.102Z,73.38
2018-08-22T01:33:09.830Z,73.28
2018-08-22T01:35:38.551Z,73.28
2018-08-22T01:38:07.347Z,73.47
2018-08-22T01:40:36.104Z,73.25
2018-08-22T01:43:04.810Z,73.20
2018-08-22T01:45:33.495Z,72.93
2018-08-22T01:48:02.196Z,73.08
2018-08-22T01:50:30.900Z,73.00
2018-08-22T01:52:59.575Z,72.97
2018-08-22T01:55:28.239Z,72.58
2018-08-22T01:57:56.927Z,73.46
2018-08-22T02:00:25.654Z,73.10
2018-08-22T02:02:54.399Z,72.93
2018-08-22T02:05:23.119Z,72.89
2018-08-22T02:07:51.841Z,73.99
2018-08-22T02:10:20.671Z,73.58
2018-08-22T02:12:49.384Z,74.16
2018-08-22T02:15:18.085Z,74.04
2018-08-22T02:17:46.793Z,74.07
2018-08-22T02:20:15.470Z,73.92
2018-08-22T02:22:44.188Z,74.57
2018-08-22T02:25:12.954Z,74.04
2018-08-22T02:27:41.603Z,74.20
2018-08-22T02:30:10.427Z,74.11
2018-08-22T02:32:39.149Z,73.69
2018-08-22T02:35:07.902Z,73.40
2018-08-22T02:37:36.591Z,73.27
2018-08-22T02:40:05.481Z,73.68
2018-08-22T02:42:34.175Z,73.92
2018-08-22T02:45:02.877Z,74.10
2018-08-22T02:47:31.571Z,73.69
2018-08-22T02:50:00.271Z,74.11
2018-08-22T02:52:28.958Z,74.20
2018-08-22T02:54:57.690Z,73.76
2018-08-22T02:57:26.434Z,73.95
2018-08-22T02:59:55.124Z,73.78
2018-08-22T03:02:23.809Z,74.48
2018-08-22T03:04:52.618Z,74.38
2018-08-22T03:07:21.338Z,74.38
2018-08-22T03:09:50.037Z,74.37
2018-08-22T03:12:18.730Z,75.00
2018-08-22T03:14:48.031Z,74.87
2018-08-22T03:17:16.705Z,75.91
2018-08-22T03:19:45.470Z,75.26
2018-08-22T03:22:14.152Z,75.05
2018-08-22T03:24:42.831Z,75.48
2018-08-22T03:27:11.545Z,75.92
2018-08-22T03:29:40.269Z,75.42
2018-08-22T03:32:08.986Z,75.73
2018-08-22T03:34:37.681Z,75.29
2018-08-22T03:37:06.427Z,75.51
2018-08-22T03:39:35.154Z,74.97
2018-08-22T03:42:03.874Z,75.18
2018-08-22T03:44:32.643Z,75.33
2018-08-22T03:47:01.495Z,74.79
2018-08-22T03:49:30.202Z,75.02
2018-08-22T03:51:58.884Z,75.26
2018-08-22T03:54:27.603Z,75.22
2018-08-22T03:56:56.284Z,75.21
2018-08-22T03:59:24.961Z,75.38
2018-08-22T04:01:53.680Z,75.40
2018-08-22T04:04:22.379Z,75.06
2018-08-22T04:06:51.095Z,75.27
2018-08-22T04:09:19.779Z,75.44
2018-08-22T04:11:48.483Z,75.28
2018-08-22T04:14:17.309Z,75.01
2018-08-22T04:16:46.006Z,75.48
2018-08-22T04:19:14.738Z,75.09
2018-08-22T04:21:43.472Z,74.70
2018-08-22T04:24:12.211Z,74.47
2018-08-22T04:26:40.933Z,75.25
2018-08-22T04:29:09.752Z,75.09
2018-08-22T04:31:38.412Z,74.43
2018-08-22T04:34:07.130Z,74.67
2018-08-22T04:36:35.950Z,74.86
2018-08-22T04:39:06.023Z,74.91
2018-08-22T04:41:34.747Z,74.66
2018-08-22T04:44:03.487Z,74.01
2018-08-22T04:46:33.683Z,72.94
2018-08-22T04:49:03.132Z,73.18
2018-08-22T04:51:31.877Z,72.54
2018-08-22T04:54:00.600Z,72.98
2018-08-22T04:56:29.442Z,72.36
2018-08-22T04:58:58.138Z,72.46
2018-08-22T05:01:26.964Z,72.14
2018-08-22T05:03:55.730Z,70.91
2018-08-22T05:06:24.429Z,71.31
2018-08-22T05:08:53.102Z,71.51
2018-08-22T05:11:21.800Z,70.89
2018-08-22T05:13:50.519Z,72.07
2018-08-22T05:16:19.274Z,71.68
2018-08-22T05:18:47.950Z,70.95
2018-08-22T05:21:16.636Z,68.97
2018-08-22T05:23:45.350Z,70.03
2018-08-22T05:26:14.092Z,69.42
2018-08-22T05:28:42.809Z,68.95
2018-08-22T05:31:11.546Z,69.17
2018-08-22T05:33:40.243Z,69.44
2018-08-22T05:36:08.939Z,68.26
2018-08-22T05:38:37.724Z,67.83
2018-08-22T05:41:06.419Z,67.69
2018-08-22T05:43:35.107Z,67.89
2018-08-22T05:46:03.852Z,67.43
2018-08-22T05:48:32.568Z,67.04
2018-08-22T05:51:01.347Z,66.53
2018-08-22T05:53:30.042Z,66.80
2018-08-22T05:55:59.063Z,66.13
2018-08-22T05:58:28.001Z,65.73
2018-08-22T06:00:56.829Z,65.87
2018-08-22T06:03:25.907Z,65.59
2018-08-22T06:05:54.626Z,64.26
2018-08-22T06:08:23.382Z,64.35
2018-08-22T06:10:52.180Z,64.21
2018-08-22T06:13:20.911Z,64.00
2018-08-22T06:15:49.875Z,63.75
2018-08-22T06:18:18.511Z,63.33
2018-08-22T06:20:47.217Z,63.16
2018-08-22T06:23:15.967Z,63.33
2018-08-22T06:25:44.721Z,63.04
2018-08-22T06:28:14.175Z,62.81
2018-08-22T06:30:42.995Z,62.61
2018-08-22T06:33:11.724Z,62.36
2018-08-22T06:35:40.592Z,62.28
2018-08-22T06:38:09.375Z,61.87
2018-08-22T06:40:38.103Z,60.99
2018-08-22T06:43:06.845Z,61.74
2018-08-22T06:45:35.617Z,61.16
2018-08-22T06:48:04.356Z,61.71
2018-08-22T06:50:33.024Z,60.92
2018-08-22T06:53:01.739Z,59.99
2018-08-22T06:55:30.419Z,60.37
2018-08-22T06:57:59.138Z,60.24
2018-08-22T07:00:27.903Z,60.23
2018-08-22T07:02:56.578Z,60.30
2018-08-22T07:05:25.356Z,60.60
2018-08-22T07:07:54.154Z,60.92
2018-08-22T07:10:22.912Z,59.33
2018-08-22T07:12:51.666Z,59.57
2018-08-22T07:15:20.382Z,58.74
2018-08-22T07:17:49.118Z,59.21
2018-08-22T07:20:17.778Z,58.58
2018-08-22T07:22:46.479Z,58.36
2018-08-22T07:25:15.883Z,58.16
2018-08-22T07:27:48.464Z,59.04
2018-08-22T07:30:17.259Z,57.78
2018-08-22T07:32:49.180Z,58.26
2018-08-22T07:35:17.921Z,57.86
2018-08-22T07:37:46.726Z,56.92
2018-08-22T07:40:15.433Z,57.85
2018-08-22T07:42:44.207Z,57.31
2018-08-22T07:45:12.949Z,57.42
2018-08-22T07:47:44.052Z,56.78
2018-08-22T07:50:12.901Z,56.85
2018-08-22T07:52:49.170Z,56.20
2018-08-22T07:55:17.939Z,56.50
2018-08-22T07:57:46.700Z,55.36
2018-08-22T08:00:15.533Z,55.84
2018-08-22T08:02:44.144Z,54.70
2018-08-22T08:05:12.903Z,54.19
2018-08-22T08:07:41.585Z,54.82
2018-08-22T08:10:44.135Z,52.14
2018-08-22T08:13:17.895Z,51.75
2018-08-22T08:15:47.557Z,51.82
2018-08-22T08:18:16.320Z,52.41
2018-08-22T08:20:45.008Z,51.77
2018-08-22T08:23:13.671Z,51.84
2018-08-22T08:25:42.422Z,51.62
2018-08-22T08:28:11.115Z,50.44
2018-08-22T08:30:39.836Z,50.04
2018-08-22T08:33:08.509Z,49.67
2018-08-22T08:35:37.303Z,49.32
2018-08-22T08:38:06.183Z,49.53
2018-08-22T08:40:34.870Z,49.65
2018-08-22T08:43:03.613Z,47.08
2018-08-22T08:45:32.332Z,48.95
2018-08-22T08:48:01.039Z,45.07
2018-08-22T08:50:29.732Z,44.95
2018-08-22T08:52:58.421Z,43.68
2018-08-22T08:55:27.148Z,45.51
2018-08-22T08:57:55.864Z,45.13
2018-08-22T09:00:24.558Z,44.71
2018-08-22T09:02:53.296Z,44.46
2018-08-22T09:05:22.012Z,43.99
2018-08-22T09:07:50.666Z,43.52
2018-08-22T09:10:19.416Z,44.16
2018-08-22T09:12:48.105Z,44.00
2018-08-22T09:15:16.772Z,43.21
2018-08-22T09:17:45.682Z,44.04
2018-08-22T09:20:14.393Z,45.52
2018-08-22T09:22:43.039Z,42.45
2018-08-22T09:25:11.728Z,44.19
2018-08-22T09:27:40.729Z,42.49
2018-08-22T09:30:09.518Z,44.18
2018-08-22T09:32:38.185Z,43.13
2018-08-22T09:35:06.934Z,42.21
2018-08-22T09:37:35.607Z,42.77
2018-08-22T09:40:04.416Z,42.94
2018-08-22T09:42:33.080Z,44.29
2018-08-22T09:45:01.823Z,43.61
2018-08-22T09:47:30.507Z,42.43
2018-08-22T09:49:59.200Z,41.34
2018-08-22T09:52:27.966Z,40.48
2018-08-22T09:55:02.996Z,40.62
2018-08-22T09:57:32.245Z,41.36
2018-08-22T10:00:01.015Z,41.26
2018-08-22T10:02:29.704Z,40.41
2018-08-22T10:04:59.744Z,40.85
2018-08-22T10:07:28.558Z,40.79
2018-08-22T10:09:57.248Z,40.55
2018-08-22T10:12:25.962Z,40.61
2018-08-22T10:14:54.725Z,41.93
2018-08-22T10:17:23.537Z,40.47
2018-08-22T10:19:52.222Z,39.00
2018-08-22T10:22:21.022Z,38.08
2018-08-22T10:24:49.723Z,38.82
2018-08-22T10:27:18.406Z,40.30
2018-08-22T10:29:47.103Z,40.50
2018-08-22T10:32:15.797Z,37.21
2018-08-22T10:34:44.497Z,38.08
2018-08-22T10:37:13.188Z,37.32
2018-08-22T10:39:41.870Z,36.83
2018-08-22T10:42:10.592Z,36.38
2018-08-22T10:44:39.342Z,35.62
2018-08-22T10:47:08.022Z,35.44
2018-08-22T10:49:36.736Z,34.02
2018-08-22T10:52:05.447Z,35.66
2018-08-22T10:54:34.138Z,34.54
2018-08-22T10:57:02.831Z,34.49
2018-08-22T10:59:31.503Z,33.90
2018-08-22T11:02:00.196Z,32.94
2018-08-22T11:04:28.899Z,33.26
2018-08-22T11:06:57.567Z,32.08
2018-08-22T11:09:26.260Z,30.96
2018-08-22T11:11:54.979Z,32.74
2018-08-22T11:14:23.676Z,31.38
2018-08-22T11:16:52.363Z,30.76
2018-08-22T11:19:21.088Z,31.50
2018-08-22T11:22:00.769Z,30.63
2018-08-22T11:24:40.471Z,30.95
2018-08-22T11:27:20.300Z,30.12
2018-08-22T11:30:00.046Z,29.68
2018-08-22T11:32:39.696Z,28.78
2018-08-22T11:35:07.077Z,29.91
2018-08-22T11:37:35.798Z,31.67
2018-08-22T11:40:04.516Z,31.53
2018-08-22T11:42:33.184Z,32.13
2018-08-22T11:45:01.926Z,31.60
2018-08-22T11:47:30.649Z,30.29
2018-08-22T11:49:59.354Z,29.33
2018-08-22T11:52:28.037Z,28.78
2018-08-22T11:54:56.784Z,28.81
2018-08-22T11:57:25.452Z,28.36
2018-08-22T11:59:54.183Z,29.56
2018-08-22T12:02:22.875Z,30.46
2018-08-22T12:04:51.633Z,29.37
2018-08-22T12:07:20.357Z,28.82
2018-08-22T12:09:49.055Z,29.22
2018-08-22T12:12:17.717Z,29.72
2018-08-22T12:14:46.407Z,27.95
2018-08-22T12:17:15.081Z,28.44
2018-08-22T12:19:43.771Z,27.83
2018-08-22T12:22:12.478Z,27.85
2018-08-22T12:24:41.229Z,29.66
2018-08-22T12:27:09.936Z,29.58
2018-08-22T12:29:38.656Z,30.78
2018-08-22T12:32:07.398Z,28.68
2018-08-22T12:34:36.059Z,28.02
2018-08-22T12:37:05.158Z,27.73
2018-08-22T12:39:33.884Z,27.96
2018-08-22T12:42:02.572Z,27.67
2018-08-22T12:44:31.321Z,28.06
2018-08-22T12:47:00.009Z,27.42
2018-08-22T12:49:28.714Z,27.45
2018-08-22T12:51:57.397Z,27.16
2018-08-22T12:54:26.099Z,27.27
2018-08-22T12:56:54.875Z,27.84
2018-08-22T12:59:23.617Z,27.20
2018-08-22T13:01:52.338Z,27.43
2018-08-22T13:04:21.058Z,26.69
2018-08-22T13:06:49.811Z,26.82
2018-08-22T13:09:18.625Z,26.79
2018-08-22T13:11:47.331Z,26.88
2018-08-22T13:14:16.053Z,26.50
2018-08-22T13:16:44.758Z,29.58
2018-08-22T13:19:13.518Z,29.83
2018-08-22T13:21:42.214Z,29.19
2018-08-22T13:24:10.999Z,28.34
2018-08-22T13:26:39.621Z,28.38
2018-08-22T13:29:08.371Z,27.92
2018-08-22T13:31:37.064Z,29.62
2018-08-22T13:34:05.931Z,30.17
2018-08-22T13:36:34.677Z,30.54
2018-08-22T13:39:04.588Z,32.84
2018-08-22T13:41:33.230Z,34.34
2018-08-22T13:44:01.917Z,33.78
2018-08-22T13:46:30.597Z,34.51
2018-08-22T13:48:59.368Z,32.82
2018-08-22T13:51:28.073Z,32.97
2018-08-22T13:53:56.801Z,32.38
2018-08-22T13:56:25.576Z,32.16
2018-08-22T13:58:54.469Z,32.44
2018-08-22T14:01:23.198Z,33.35
2018-08-22T14:03:51.997Z,34.42
2018-08-22T14:06:20.853Z,34.25
2018-08-22T14:08:49.530Z,32.22
2018-08-22T14:11:18.238Z,32.32
2018-08-22T14:13:46.970Z,32.55
2018-08-22T14:16:15.672Z,30.66
2018-08-22T14:18:44.369Z,31.23
2018-08-22T14:21:13.137Z,31.56
2018-08-22T14:23:41.820Z,31.37
2018-08-22T14:26:10.591Z,30.38
2018-08-22T14:28:39.355Z,30.75
2018-08-22T14:31:08.088Z,30.28
2018-08-22T14:33:36.769Z,30.62
2018-08-22T14:36:05.480Z,31.09
2018-08-22T14:38:34.483Z,30.77
2018-08-22T14:41:03.407Z,29.66
2018-08-22T14:43:32.179Z,29.87
2018-08-22T14:46:00.921Z,30.48
2018-08-22T14:48:29.600Z,30.61
2018-08-22T14:50:58.309Z,31.92
2018-08-22T14:53:26.993Z,32.61
2018-08-22T14:55:55.724Z,33.83
2018-08-22T14:58:24.479Z,34.06
2018-08-22T15:00:53.378Z,35.35
2018-08-22T15:03:22.290Z,35.55
2018-08-22T15:05:50.858Z,35.76
2018-08-22T15:08:19.586Z,37.21
2018-08-22T15:10:48.834Z,36.88
2018-08-22T15:13:17.537Z,38.30
2018-08-22T15:15:47.120Z,37.92
2018-08-22T15:18:15.933Z,38.19
2018-08-22T15:20:44.718Z,38.07
2018-08-22T15:23:13.423Z,37.35
2018-08-22T15:25:42.126Z,38.30
2018-08-22T15:28:10.831Z,37.34
2018-08-22T15:30:39.552Z,37.72
2018-08-22T15:33:08.278Z,34.87
2018-08-22T15:35:37.009Z,35.58
2018-08-22T15:38:05.858Z,34.93
2018-08-22T15:40:34.567Z,35.34
2018-08-22T15:43:03.291Z,35.27
2018-08-22T15:45:32.067Z,34.78
2018-08-22T15:48:00.752Z,33.98
2018-08-22T15:50:29.438Z,35.16
2018-08-22T15:52:58.313Z,34.45
2018-08-22T15:55:27.010Z,34.16
2018-08-22T15:57:59.856Z,35.28
2018-08-22T16:00:49.484Z,34.28
2018-08-22T16:03:18.173Z,34.75
2018-08-22T16:05:47.728Z,35.56
2018-08-22T16:08:17.840Z,35.07
2018-08-22T16:10:46.530Z,36.30
2018-08-22T16:13:20.261Z,35.98
2018-08-22T16:15:50.638Z,36.17
2018-08-22T16:18:19.528Z,36.17
2018-08-22T16:21:00.603Z,36.13
2018-08-22T16:23:31.113Z,36.60
2018-08-22T16:26:01.013Z,36.72
2018-08-22T16:28:36.523Z,36.34
2018-08-22T16:31:05.256Z,37.02
2018-08-22T16:33:33.986Z,36.75
2018-08-22T16:36:02.780Z,37.83
2018-08-22T16:38:31.513Z,37.49
2018-08-22T16:41:00.223Z,38.44
2018-08-22T16:43:41.210Z,38.04
2018-08-22T16:46:11.595Z,38.01
2018-08-22T16:48:41.243Z,39.13
2018-08-22T16:51:09.972Z,39.57
2018-08-22T16:53:38.696Z,39.68
2018-08-22T16:56:07.499Z,39.65
2018-08-22T16:58:36.245Z,39.69
2018-08-22T17:01:04.971Z,40.12
2018-08-22T17:03:33.695Z,40.13
2018-08-22T17:06:12.576Z,40.77
2018-08-22T17:08:41.751Z,41.27
2018-08-22T17:11:12.056Z,41.21
2018-08-22T17:13:49.670Z,42.08
2018-08-22T17:16:18.532Z,42.25
2018-08-22T17:18:47.572Z,42.96
2018-08-22T17:21:16.414Z,42.15
2018-08-22T17:23:45.414Z,42.20
2018-08-22T17:26:16.150Z,43.73
2018-08-22T17:28:47.446Z,43.40
2018-08-22T17:31:16.972Z,44.21
2018-08-22T17:33:51.422Z,44.11
2018-08-22T17:36:20.086Z,43.97
2018-08-22T17:38:50.036Z,44.21
2018-08-22T17:41:20.692Z,44.44
2018-08-22T17:44:14.130Z,44.26
2018-08-22T17:46:45.484Z,44.27
2018-08-22T17:49:14.177Z,44.78
2018-08-22T17:52:09.608Z,45.21
2018-08-22T17:54:38.352Z,45.67
2018-08-22T17:57:31.200Z,44.93
2018-08-22T17:59:59.961Z,45.69
2018-08-22T18:02:28.813Z,45.23
2018-08-22T18:05:01.841Z,45.85
2018-08-22T18:07:30.871Z,46.35
2018-08-22T18:09:59.694Z,46.16
2018-08-22T18:12:28.769Z,45.37
2018-08-22T18:14:58.601Z,45.92
2018-08-22T18:17:27.365Z,45.84
2018-08-22T18:19:56.086Z,45.49
2018-08-22T18:22:30.213Z,46.67
2018-08-22T18:24:59.110Z,46.55
2018-08-22T18:27:28.294Z,46.39
2018-08-22T18:29:57.020Z,46.21
2018-08-22T18:32:25.730Z,46.24
2018-08-22T18:35:11.430Z,46.81
2018-08-22T18:37:40.795Z,46.73
2018-08-22T18:40:19.166Z,47.10
2018-08-22T18:42:50.274Z,47.98
2018-08-22T18:45:19.451Z,48.44
2018-08-22T18:47:48.190Z,47.97
2018-08-22T18:50:16.961Z,48.94
2018-08-22T18:52:48.453Z,48.28
2018-08-22T18:55:17.213Z,48.47
2018-08-22T18:57:45.967Z,48.94
2018-08-22T19:00:14.675Z,50.03
2018-08-22T19:02:43.435Z,49.87
2018-08-22T19:05:26.149Z,50.05
2018-08-22T19:08:05.049Z,50.15
2018-08-22T19:10:35.195Z,50.89
2018-08-22T19:13:09.085Z,50.90
2018-08-22T19:15:38.336Z,51.53
2018-08-22T19:18:08.569Z,51.32
2018-08-22T19:20:37.507Z,51.56
2018-08-22T19:23:06.925Z,51.83
2018-08-22T19:25:35.640Z,51.90
2018-08-22T19:28:04.434Z,52.06
2018-08-22T19:30:36.123Z,52.14
2018-08-22T19:33:05.172Z,52.61
2018-08-22T19:35:33.963Z,52.82
2018-08-22T19:38:04.540Z,52.74
2018-08-22T19:40:35.130Z,52.41
2018-08-22T19:43:04.031Z,52.54
2018-08-22T19:45:35.075Z,53.14
2018-08-22T19:48:03.960Z,53.29
2018-08-22T19:50:33.118Z,53.27
2018-08-22T19:53:01.858Z,53.20
2018-08-22T19:55:31.080Z,52.67
2018-08-22T19:57:59.937Z,52.09
2018-08-22T20:00:28.751Z,52.68
2018-08-22T20:02:58.358Z,52.60
2018-08-22T20:05:27.403Z,52.38
2018-08-22T20:07:56.126Z,52.13
2018-08-22T20:10:25.057Z,52.46
2018-08-22T20:12:55.922Z,52.42
2018-08-22T20:15:25.018Z,52.35
2018-08-22T20:17:54.747Z,52.24
2018-08-22T20:20:23.498Z,52.27
2018-08-22T20:22:54.469Z,51.96
2018-08-22T20:25:23.071Z,52.84
2018-08-22T20:27:51.765Z,52.50
2018-08-22T20:30:22.315Z,53.02
2018-08-22T20:33:00.065Z,52.84
2018-08-22T20:35:36.836Z,53.42
2018-08-22T20:38:06.992Z,52.93
2018-08-22T20:40:35.766Z,53.18
2018-08-22T20:43:04.533Z,53.56
2018-08-22T20:45:36.296Z,53.97
2018-08-22T20:48:11.960Z,53.76
2018-08-22T20:50:41.991Z,53.97
2018-08-22T20:53:12.213Z,54.29
2018-08-22T20:55:41.033Z,53.81
2018-08-22T20:58:15.368Z,54.04
2018-08-22T21:00:44.153Z,54.25
2018-08-22T21:03:12.854Z,53.97
2018-08-22T21:05:41.724Z,54.65
2018-08-22T21:08:10.459Z,54.62
2018-08-22T21:10:39.193Z,55.42
2018-08-22T21:13:13.465Z,55.72
2018-08-22T21:15:42.643Z,55.56
2018-08-22T21:18:11.376Z,56.53
2018-08-22T21:20:40.090Z,56.17
2018-08-22T21:23:08.828Z,56.37
2018-08-22T21:25:37.547Z,56.83
2018-08-22T21:28:06.251Z,57.29
2018-08-22T21:30:35.172Z,56.27
2018-08-22T21:33:03.936Z,56.95
2018-08-22T21:35:32.839Z,56.12
2018-08-22T21:38:07.453Z,56.06
2018-08-22T21:40:36.258Z,55.46
2018-08-22T21:43:05.053Z,55.25
2018-08-22T21:45:33.787Z,55.99
2018-08-22T21:48:14.258Z,55.67
2018-08-22T21:50:43.823Z,54.64
2018-08-22T21:53:12.568Z,53.32
2018-08-22T21:55:42.514Z,53.53
2018-08-22T21:58:11.859Z,52.60
2018-08-22T22:00:40.652Z,53.46
2018-08-22T22:03:10.668Z,52.38
2018-08-22T22:05:46.580Z,52.05
2018-08-22T22:08:15.375Z,52.96
2018-08-22T22:10:44.079Z,51.92
2018-08-22T22:13:12.920Z,54.36
2018-08-22T22:15:46.491Z,54.00
2018-08-22T22:18:15.201Z,52.87
2018-08-22T22:20:47.983Z,53.27
2018-08-22T22:23:16.701Z,52.81
2018-08-22T22:25:45.455Z,52.21
2018-08-22T22:28:14.286Z,51.72
2018-08-22T22:30:43.057Z,51.01
2018-08-22T22:33:11.794Z,49.51
2018-08-22T22:35:41.568Z,49.60
2018-08-22T22:40:40.210Z,50.37
2018-08-22T22:43:13.345Z,51.03
2018-08-22T22:45:42.095Z,51.56
2018-08-22T22:48:10.780Z,51.40
2018-08-22T22:50:39.509Z,52.76
2018-08-22T22:53:08.195Z,53.36
2018-08-22T22:55:36.899Z,53.04
2018-08-22T22:58:05.651Z,53.37
2018-08-22T23:00:34.387Z,53.46
2018-08-22T23:03:07.623Z,52.84
2018-08-22T23:05:36.340Z,52.81
2018-08-22T23:08:05.063Z,51.87
2018-08-22T23:10:33.806Z,51.87
2018-08-22T23:13:02.533Z,50.67
2018-08-22T23:15:31.743Z,49.03
2018-08-22T23:18:01.688Z,48.21
2018-08-22T23:20:41.146Z,48.17
2018-08-22T23:23:25.975Z,48.10
2018-08-22T23:25:55.610Z,48.01
2018-08-22T23:28:24.308Z,47.94
2018-08-22T23:30:53.058Z,47.96
2018-08-22T23:33:21.783Z,46.92
2018-08-22T23:35:50.506Z,47.70
2018-08-22T23:38:24.478Z,46.91
2018-08-22T23:40:53.349Z,46.31
2018-08-22T23:43:22.185Z,45.98
2018-08-22T23:45:57.023Z,46.89
2018-08-22T23:48:30.872Z,45.81
2018-08-22T23:51:01.335Z,45.49
2018-08-22T23:53:37.209Z,46.24
2018-08-22T23:56:14.771Z,45.58
2018-08-22T23:58:44.621Z,46.08
